createdAt,value
2022-09-21T00:09:58.949Z,6.80
2022-09-21T00:20:06.155Z,6.20
2022-09-21T00:30:12.957Z,5.90
2022-09-21T00:40:18.719Z,7.20
2022-09-21T00:50:26.402Z,5.90
2022-09-21T01:00:31.991Z,6.80
2022-09-21T01:10:48.278Z,6.20
2022-09-21T01:21:23.333Z,5.60
2022-09-21T01:31:35.888Z,5.80
2022-09-21T01:41:42.896Z,5.40
2022-09-21T01:51:52.987Z,6.20
2022-09-21T02:02:05.088Z,8.30
2022-09-21T02:12:10.875Z,9.30
2022-09-21T02:22:29.429Z,9.60
2022-09-21T02:32:41.983Z,8.80
2022-09-21T02:42:49.534Z,10.00
2022-09-21T02:52:55.982Z,10.80
2022-09-21T03:03:01.633Z,12.40
2022-09-21T03:13:09.102Z,12.30
2022-09-21T03:23:15.097Z,12.40
2022-09-21T03:33:21.416Z,11.50
2022-09-21T03:43:27.399Z,12.90
2022-09-21T03:53:33.012Z,11.20
2022-09-21T04:03:39.095Z,12.10
2022-09-21T04:13:50.206Z,12.10
2022-09-21T04:23:55.853Z,13.80
2022-09-21T04:34:01.493Z,14.20
2022-09-21T04:44:07.323Z,12.30
2022-09-21T04:54:13.028Z,11.40
2022-09-21T05:04:18.762Z,11.20
2022-09-21T05:14:24.457Z,12.60
2022-09-21T05:24:30.199Z,11.10
2022-09-21T05:34:51.254Z,11.20
2022-09-21T05:44:57.882Z,10.90
2022-09-21T05:55:10.245Z,10.40
2022-09-21T06:05:17.792Z,7.90
2022-09-21T06:15:23.602Z,7.20
2022-09-21T06:25:29.206Z,7.30
2022-09-21T06:35:36.330Z,5.90
2022-09-21T06:45:41.961Z,5.70
2022-09-21T06:55:47.595Z,5.70
2022-09-21T07:05:53.215Z,5.00
2022-09-21T07:15:58.866Z,3.90
2022-09-21T07:26:07.356Z,3.40
2022-09-21T07:36:13.346Z,3.40
2022-09-21T07:46:20.641Z,1.90
2022-09-21T07:56:27.010Z,2.50
2022-09-21T08:06:33.612Z,2.00
2022-09-21T08:16:40.527Z,1.90
2022-09-21T08:26:46.336Z,2.40
2022-09-21T08:36:55.526Z,2.70
2022-09-21T08:47:11.054Z,2.00
2022-09-21T08:57:17.369Z,1.40
2022-09-21T09:07:43.406Z,1.40
2022-09-21T09:17:59.791Z,1.20
2022-09-21T09:28:17.566Z,1.20
2022-09-21T09:38:29.616Z,2.60
2022-09-21T09:48:53.894Z,1.10
2022-09-21T09:59:08.163Z,0.80
2022-09-21T10:09:27.962Z,0.60
2022-09-21T10:19:34.289Z,0.90
2022-09-21T10:29:46.143Z,0.40
2022-09-21T10:39:51.779Z,1.30
2022-09-21T10:49:59.867Z,0.70
2022-09-21T11:00:35.423Z,0.80
2022-09-21T11:10:49.156Z,0.60
2022-09-21T11:20:59.706Z,0.80
2022-09-21T11:31:23.340Z,0.80
2022-09-21T11:41:54.859Z,1.30
2022-09-21T11:52:11.582Z,0.50
2022-09-21T12:02:39.350Z,0.90
2022-09-21T12:12:54.762Z,0.60
2022-09-21T12:23:06.173Z,1.10
2022-09-21T12:33:21.173Z,0.90
2022-09-21T12:43:36.028Z,0.70
2022-09-21T12:53:50.809Z,0.80
2022-09-21T13:04:12.415Z,2.90
2022-09-21T13:14:19.154Z,0.30
2022-09-21T13:24:31.052Z,0.40
2022-09-21T13:34:38.538Z,0.40
2022-09-21T13:44:46.348Z,0.60
2022-09-21T13:54:54.777Z,0.70
2022-09-21T14:05:06.073Z,0.70
2022-09-21T14:15:26.469Z,1.60
2022-09-21T14:25:53.244Z,0.40
2022-09-21T14:36:02.189Z,0.50
2022-09-21T14:46:26.391Z,1.70
2022-09-21T14:56:51.747Z,0.90
2022-09-21T15:07:26.504Z,0.80
2022-09-21T15:17:32.571Z,0.30
2022-09-21T15:27:38.323Z,0.30
2022-09-21T15:37:45.861Z,0.80
2022-09-21T15:47:51.940Z,0.80
2022-09-21T15:57:59.098Z,1.60
2022-09-21T16:08:22.668Z,1.70
2022-09-21T16:18:43.048Z,2.30
2022-09-21T16:28:49.299Z,3.90
2022-09-21T16:38:55.246Z,4.20
2022-09-21T16:49:02.162Z,3.60
2022-09-21T16:59:18.585Z,2.40
2022-09-21T17:09:29.421Z,2.10
2022-09-21T17:19:36.925Z,2.70
2022-09-21T17:29:47.952Z,2.80
2022-09-21T17:39:54.657Z,3.60
2022-09-21T17:50:03.855Z,4.20
2022-09-21T18:00:19.986Z,5.20
2022-09-21T18:10:27.163Z,4.20
2022-09-21T18:20:54.170Z,2.30
2022-09-21T18:31:20.951Z,2.00
2022-09-21T18:41:34.378Z,2.70
2022-09-21T18:51:46.973Z,1.90
2022-09-21T19:01:53.613Z,3.50
2022-09-21T19:12:07.482Z,3.20
2022-09-21T19:22:24.498Z,3.80
2022-09-21T19:32:37.225Z,3.90
2022-09-21T19:42:56.008Z,4.30
2022-09-21T19:53:16.605Z,4.70
2022-09-21T20:03:31.297Z,5.90
2022-09-21T20:13:53.067Z,6.20
2022-09-21T20:24:01.944Z,5.70
2022-09-21T20:34:07.633Z,5.60
2022-09-21T20:44:16.379Z,6.80
2022-09-21T20:54:23.325Z,5.60
2022-09-21T21:04:29.804Z,7.80
2022-09-21T21:14:35.471Z,7.80
2022-09-21T21:24:41.761Z,7.50
2022-09-21T21:34:49.708Z,8.20
2022-09-21T21:54:59.876Z,7.50
2022-09-21T22:05:06.079Z,7.10
2022-09-21T22:15:13.591Z,7.30
2022-09-21T22:25:19.324Z,6.80
2022-09-21T22:35:25.330Z,7.00
2022-09-21T22:45:31.964Z,6.50
2022-09-21T22:55:37.673Z,5.20
2022-09-21T23:05:43.338Z,5.40
2022-09-21T23:15:49.012Z,5.30
2022-09-21T23:26:03.474Z,5.30
2022-09-21T23:36:11.281Z,4.60
2022-09-21T23:46:18.960Z,5.90
